sensor_id;sensor_type;location;lat;lon;timestamp;P1;durP1;ratioP1;P2;durP2;ratioP2
8632;SDS011;4354;49.832;10.746;2023-04-06T00:00:48;5.90;;;4.80;;
8632;SDS011;4354;49.832;10.746;2023-04-06T00:03:15;6.33;;;4.80;;
8632;SDS011;4354;49.832;10.746;2023-04-06T00:05:42;6.53;;;4.57;;
8632;SDS011;4354;49.832;10.746;2023-04-06T00:08:09;5.03;;;4.47;;
8632;SDS011;4354;49.832;10.746;2023-04-06T00:10:36;6.93;;;4.93;;
8632;SDS011;4354;49.832;10.746;2023-04-06T00:13:03;5.33;;;4.47;;
8632;SDS011;4354;49.832;10.746;2023-04-06T00:15:32;6.13;;;4.80;;
8632;SDS011;4354;49.832;10.746;2023-04-06T00:17:58;5.53;;;4.30;;
8632;SDS011;4354;49.832;10.746;2023-04-06T00:20:25;7.27;;;5.03;;
8632;SDS011;4354;49.832;10.746;2023-04-06T00:22:52;6.20;;;5.20;;
8632;SDS011;4354;49.832;10.746;2023-04-06T00:25:20;6.00;;;4.90;;
8632;SDS011;4354;49.832;10.746;2023-04-06T00:27:46;7.53;;;5.00;;
8632;SDS011;4354;49.832;10.746;2023-04-06T00:30:13;7.13;;;5.40;;
8632;SDS011;4354;49.832;10.746;2023-04-06T00:32:40;7.33;;;4.97;;
8632;SDS011;4354;49.832;10.746;2023-04-06T00:35:07;7.60;;;4.97;;
8632;SDS011;4354;49.832;10.746;2023-04-06T00:37:34;5.97;;;4.50;;
8632;SDS011;4354;49.832;10.746;2023-04-06T00:40:01;4.97;;;4.43;;
8632;SDS011;4354;49.832;10.746;2023-04-06T00:42:28;5.13;;;4.63;;
8632;SDS011;4354;49.832;10.746;2023-04-06T00:44:56;8.37;;;5.40;;
8632;SDS011;4354;49.832;10.746;2023-04-06T00:47:24;5.97;;;5.17;;
8632;SDS011;4354;49.832;10.746;2023-04-06T00:49:52;8.53;;;5.60;;
8632;SDS011;4354;49.832;10.746;2023-04-06T00:52:20;7.37;;;5.60;;
8632;SDS011;4354;49.832;10.746;2023-04-06T00:54:47;5.70;;;5.07;;
8632;SDS011;4354;49.832;10.746;2023-04-06T00:57:14;5.60;;;4.93;;
8632;SDS011;4354;49.832;10.746;2023-04-06T00:59:41;6.87;;;4.80;;
8632;SDS011;4354;49.832;10.746;2023-04-06T01:02:08;9.80;;;4.63;;
8632;SDS011;4354;49.832;10.746;2023-04-06T02:43:07;8.10;;;6.40;;
8632;SDS011;4354;49.832;10.746;2023-04-06T02:45:33;7.87;;;6.30;;
8632;SDS011;4354;49.832;10.746;2023-04-06T02:48:00;6.63;;;5.97;;
8632;SDS011;4354;49.832;10.746;2023-04-06T02:50:27;6.47;;;5.53;;
8632;SDS011;4354;49.832;10.746;2023-04-06T02:52:54;8.20;;;6.10;;
8632;SDS011;4354;49.832;10.746;2023-04-06T02:55:21;7.93;;;6.43;;
8632;SDS011;4354;49.832;10.746;2023-04-06T02:57:47;6.93;;;6.03;;
8632;SDS011;4354;49.832;10.746;2023-04-06T03:00:14;9.00;;;6.00;;
8632;SDS011;4354;49.832;10.746;2023-04-06T03:02:41;8.80;;;6.63;;
8632;SDS011;4354;49.832;10.746;2023-04-06T03:05:08;10.60;;;6.67;;
8632;SDS011;4354;49.832;10.746;2023-04-06T03:07:35;8.10;;;6.63;;
8632;SDS011;4354;49.832;10.746;2023-04-06T03:10:02;9.87;;;6.47;;
8632;SDS011;4354;49.832;10.746;2023-04-06T03:12:28;8.03;;;6.20;;
8632;SDS011;4354;49.832;10.746;2023-04-06T03:14:55;6.63;;;5.43;;
8632;SDS011;4354;49.832;10.746;2023-04-06T03:17:22;5.97;;;4.73;;
8632;SDS011;4354;49.832;10.746;2023-04-06T03:19:49;5.93;;;5.30;;
8632;SDS011;4354;49.832;10.746;2023-04-06T03:22:15;7.57;;;5.50;;
8632;SDS011;4354;49.832;10.746;2023-04-06T03:24:42;6.70;;;5.87;;
8632;SDS011;4354;49.832;10.746;2023-04-06T03:27:09;7.33;;;5.70;;
8632;SDS011;4354;49.832;10.746;2023-04-06T03:29:36;7.13;;;5.30;;
8632;SDS011;4354;49.832;10.746;2023-04-06T03:32:02;8.30;;;5.90;;
8632;SDS011;4354;49.832;10.746;2023-04-06T03:34:29;7.47;;;6.13;;
8632;SDS011;4354;49.832;10.746;2023-04-06T03:36:56;6.27;;;5.53;;
8632;SDS011;4354;49.832;10.746;2023-04-06T03:39:35;9.57;;;6.27;;
8632;SDS011;4354;49.832;10.746;2023-04-06T03:42:02;7.03;;;5.97;;
8632;SDS011;4354;49.832;10.746;2023-04-06T03:44:29;6.40;;;5.70;;
8632;SDS011;4354;49.832;10.746;2023-04-06T03:46:56;7.80;;;6.00;;
8632;SDS011;4354;49.832;10.746;2023-04-06T03:49:22;8.80;;;5.60;;
8632;SDS011;4354;49.832;10.746;2023-04-06T03:51:49;8.40;;;6.10;;
8632;SDS011;4354;49.832;10.746;2023-04-06T03:54:16;7.30;;;6.10;;
8632;SDS011;4354;49.832;10.746;2023-04-06T03:56:46;9.17;;;6.17;;
8632;SDS011;4354;49.832;10.746;2023-04-06T03:59:12;8.10;;;6.30;;
8632;SDS011;4354;49.832;10.746;2023-04-06T04:01:39;7.47;;;5.60;;
8632;SDS011;4354;49.832;10.746;2023-04-06T04:04:06;8.17;;;6.30;;
8632;SDS011;4354;49.832;10.746;2023-04-06T04:06:33;8.13;;;6.23;;
8632;SDS011;4354;49.832;10.746;2023-04-06T04:08:59;10.23;;;6.23;;
8632;SDS011;4354;49.832;10.746;2023-04-06T04:11:26;7.67;;;6.70;;
8632;SDS011;4354;49.832;10.746;2023-04-06T04:13:53;10.27;;;6.70;;
8632;SDS011;4354;49.832;10.746;2023-04-06T04:16:20;11.17;;;7.13;;
8632;SDS011;4354;49.832;10.746;2023-04-06T04:18:46;11.07;;;7.83;;
8632;SDS011;4354;49.832;10.746;2023-04-06T04:21:14;13.07;;;8.70;;
8632;SDS011;4354;49.832;10.746;2023-04-06T04:23:41;10.17;;;8.57;;
8632;SDS011;4354;49.832;10.746;2023-04-06T04:26:08;19.77;;;12.37;;
8632;SDS011;4354;49.832;10.746;2023-04-06T04:28:35;21.90;;;12.37;;
8632;SDS011;4354;49.832;10.746;2023-04-06T04:31:01;21.37;;;11.67;;
8632;SDS011;4354;49.832;10.746;2023-04-06T04:33:28;16.77;;;9.40;;
8632;SDS011;4354;49.832;10.746;2023-04-06T04:35:55;12.30;;;7.90;;
8632;SDS011;4354;49.832;10.746;2023-04-06T04:38:22;12.10;;;7.33;;
8632;SDS011;4354;49.832;10.746;2023-04-06T04:40:48;8.37;;;6.60;;
8632;SDS011;4354;49.832;10.746;2023-04-06T04:43:15;9.60;;;7.27;;
8632;SDS011;4354;49.832;10.746;2023-04-06T04:45:42;9.13;;;6.97;;
8632;SDS011;4354;49.832;10.746;2023-04-06T04:48:08;12.83;;;7.50;;
8632;SDS011;4354;49.832;10.746;2023-04-06T04:50:36;8.93;;;6.87;;
8632;SDS011;4354;49.832;10.746;2023-04-06T04:53:02;10.70;;;6.80;;
8632;SDS011;4354;49.832;10.746;2023-04-06T04:55:32;9.73;;;7.00;;
8632;SDS011;4354;49.832;10.746;2023-04-06T04:57:58;10.97;;;7.43;;
8632;SDS011;4354;49.832;10.746;2023-04-06T05:00:25;11.23;;;6.87;;
8632;SDS011;4354;49.832;10.746;2023-04-06T05:02:52;9.10;;;6.63;;
8632;SDS011;4354;49.832;10.746;2023-04-06T05:05:19;9.73;;;6.90;;
8632;SDS011;4354;49.832;10.746;2023-04-06T05:07:46;9.80;;;6.83;;
8632;SDS011;4354;49.832;10.746;2023-04-06T05:10:13;10.33;;;7.50;;
8632;SDS011;4354;49.832;10.746;2023-04-06T05:12:39;11.70;;;8.50;;
8632;SDS011;4354;49.832;10.746;2023-04-06T05:15:06;9.57;;;7.60;;
8632;SDS011;4354;49.832;10.746;2023-04-06T05:17:34;10.70;;;7.77;;
8632;SDS011;4354;49.832;10.746;2023-04-06T05:20:00;10.53;;;8.07;;
8632;SDS011;4354;49.832;10.746;2023-04-06T05:22:28;19.07;;;9.37;;
8632;SDS011;4354;49.832;10.746;2023-04-06T05:24:55;19.60;;;10.57;;
8632;SDS011;4354;49.832;10.746;2023-04-06T05:27:22;15.47;;;9.60;;
8632;SDS011;4354;49.832;10.746;2023-04-06T05:29:48;12.33;;;8.23;;
8632;SDS011;4354;49.832;10.746;2023-04-06T05:32:15;11.27;;;8.23;;
8632;SDS011;4354;49.832;10.746;2023-04-06T05:34:42;13.20;;;8.13;;
8632;SDS011;4354;49.832;10.746;2023-04-06T05:37:09;10.43;;;7.80;;
8632;SDS011;4354;49.832;10.746;2023-04-06T05:39:35;10.47;;;7.17;;
8632;SDS011;4354;49.832;10.746;2023-04-06T05:42:03;10.10;;;6.03;;
8632;SDS011;4354;49.832;10.746;2023-04-06T05:44:31;9.80;;;7.23;;
8632;SDS011;4354;49.832;10.746;2023-04-06T05:46:58;8.60;;;6.50;;
8632;SDS011;4354;49.832;10.746;2023-04-06T05:49:25;7.60;;;6.43;;
8632;SDS011;4354;49.832;10.746;2023-04-06T05:51:52;8.73;;;6.57;;
8632;SDS011;4354;49.832;10.746;2023-04-06T05:54:18;8.60;;;6.80;;
8632;SDS011;4354;49.832;10.746;2023-04-06T05:56:46;8.53;;;6.50;;
8632;SDS011;4354;49.832;10.746;2023-04-06T05:59:13;8.73;;;6.00;;
8632;SDS011;4354;49.832;10.746;2023-04-06T06:01:39;10.77;;;5.90;;
8632;SDS011;4354;49.832;10.746;2023-04-06T06:04:06;10.97;;;6.60;;
8632;SDS011;4354;49.832;10.746;2023-04-06T06:06:33;8.30;;;6.07;;
8632;SDS011;4354;49.832;10.746;2023-04-06T06:09:00;9.10;;;5.60;;
8632;SDS011;4354;49.832;10.746;2023-04-06T06:11:27;9.47;;;6.10;;
8632;SDS011;4354;49.832;10.746;2023-04-06T06:13:54;7.00;;;6.30;;
8632;SDS011;4354;49.832;10.746;2023-04-06T06:16:21;10.13;;;6.67;;
8632;SDS011;4354;49.832;10.746;2023-04-06T06:18:48;7.77;;;6.87;;
8632;SDS011;4354;49.832;10.746;2023-04-06T06:21:15;9.87;;;8.10;;
8632;SDS011;4354;49.832;10.746;2023-04-06T06:23:43;11.87;;;8.37;;
8632;SDS011;4354;49.832;10.746;2023-04-06T06:26:09;8.07;;;7.03;;
8632;SDS011;4354;49.832;10.746;2023-04-06T06:28:37;10.57;;;7.03;;
8632;SDS011;4354;49.832;10.746;2023-04-06T06:31:03;9.00;;;6.93;;
8632;SDS011;4354;49.832;10.746;2023-04-06T06:33:30;8.43;;;6.80;;
8632;SDS011;4354;49.832;10.746;2023-04-06T06:35:57;8.40;;;6.67;;
8632;SDS011;4354;49.832;10.746;2023-04-06T06:38:24;9.87;;;6.83;;
8632;SDS011;4354;49.832;10.746;2023-04-06T06:40:50;13.07;;;7.60;;
8632;SDS011;4354;49.832;10.746;2023-04-06T06:43:18;11.87;;;7.33;;
8632;SDS011;4354;49.832;10.746;2023-04-06T06:45:45;7.67;;;6.93;;
8632;SDS011;4354;49.832;10.746;2023-04-06T06:48:12;10.77;;;7.17;;
8632;SDS011;4354;49.832;10.746;2023-04-06T06:50:39;9.63;;;6.53;;
8632;SDS011;4354;49.832;10.746;2023-04-06T06:53:06;10.37;;;7.37;;
8632;SDS011;4354;49.832;10.746;2023-04-06T06:55:32;9.57;;;6.60;;
8632;SDS011;4354;49.832;10.746;2023-04-06T06:57:59;9.80;;;6.70;;
8632;SDS011;4354;49.832;10.746;2023-04-06T07:00:26;8.00;;;6.90;;
8632;SDS011;4354;49.832;10.746;2023-04-06T07:02:53;8.67;;;6.87;;
8632;SDS011;4354;49.832;10.746;2023-04-06T07:05:20;10.43;;;8.30;;
8632;SDS011;4354;49.832;10.746;2023-04-06T07:07:54;17.97;;;11.67;;
8632;SDS011;4354;49.832;10.746;2023-04-06T07:10:22;10.07;;;8.60;;
8632;SDS011;4354;49.832;10.746;2023-04-06T07:12:49;23.20;;;12.50;;
8632;SDS011;4354;49.832;10.746;2023-04-06T07:15:16;8.57;;;6.70;;
8632;SDS011;4354;49.832;10.746;2023-04-06T07:17:43;8.40;;;6.70;;
8632;SDS011;4354;49.832;10.746;2023-04-06T07:20:13;11.63;;;7.20;;
8632;SDS011;4354;49.832;10.746;2023-04-06T07:22:41;7.07;;;6.33;;
8632;SDS011;4354;49.832;10.746;2023-04-06T07:25:09;10.43;;;6.73;;
8632;SDS011;4354;49.832;10.746;2023-04-06T07:27:36;8.73;;;6.50;;
8632;SDS011;4354;49.832;10.746;2023-04-06T07:30:02;8.80;;;6.20;;
8632;SDS011;4354;49.832;10.746;2023-04-06T07:32:29;9.47;;;6.13;;
8632;SDS011;4354;49.832;10.746;2023-04-06T07:34:56;7.57;;;5.50;;
8632;SDS011;4354;49.832;10.746;2023-04-06T07:37:24;6.67;;;4.83;;
8632;SDS011;4354;49.832;10.746;2023-04-06T07:39:51;7.37;;;5.50;;
8632;SDS011;4354;49.832;10.746;2023-04-06T07:42:18;6.97;;;4.88;;
8632;SDS011;4354;49.832;10.746;2023-04-06T07:44:44;8.57;;;5.30;;
8632;SDS011;4354;49.832;10.746;2023-04-06T07:47:11;6.00;;;4.97;;
8632;SDS011;4354;49.832;10.746;2023-04-06T07:49:38;7.85;;;5.45;;
8632;SDS011;4354;49.832;10.746;2023-04-06T07:52:04;7.15;;;5.82;;
8632;SDS011;4354;49.832;10.746;2023-04-06T07:54:31;10.45;;;6.50;;
8632;SDS011;4354;49.832;10.746;2023-04-06T07:56:58;7.57;;;6.45;;
8632;SDS011;4354;49.832;10.746;2023-04-06T07:59:25;7.90;;;6.50;;
8632;SDS011;4354;49.832;10.746;2023-04-06T08:01:52;8.05;;;5.93;;
8632;SDS011;4354;49.832;10.746;2023-04-06T08:04:18;7.32;;;6.03;;
8632;SDS011;4354;49.832;10.746;2023-04-06T08:06:46;7.72;;;6.10;;
8632;SDS011;4354;49.832;10.746;2023-04-06T08:09:13;9.15;;;5.40;;
8632;SDS011;4354;49.832;10.746;2023-04-06T08:11:39;6.00;;;5.35;;
8632;SDS011;4354;49.832;10.746;2023-04-06T08:14:06;9.35;;;5.75;;
8632;SDS011;4354;49.832;10.746;2023-04-06T08:16:34;7.90;;;5.50;;
8632;SDS011;4354;49.832;10.746;2023-04-06T08:19:01;8.18;;;5.72;;
8632;SDS011;4354;49.832;10.746;2023-04-06T08:21:27;6.93;;;5.88;;
8632;SDS011;4354;49.832;10.746;2023-04-06T08:23:54;6.10;;;5.60;;
8632;SDS011;4354;49.832;10.746;2023-04-06T08:26:21;8.30;;;5.55;;
8632;SDS011;4354;49.832;10.746;2023-04-06T08:28:47;6.20;;;5.60;;
8632;SDS011;4354;49.832;10.746;2023-04-06T08:31:14;8.95;;;6.47;;
8632;SDS011;4354;49.832;10.746;2023-04-06T08:33:41;7.07;;;6.38;;
8632;SDS011;4354;49.832;10.746;2023-04-06T08:36:11;6.22;;;5.63;;
8632;SDS011;4354;49.832;10.746;2023-04-06T08:38:41;6.85;;;6.10;;
8632;SDS011;4354;49.832;10.746;2023-04-06T08:41:09;10.00;;;6.68;;
8632;SDS011;4354;49.832;10.746;2023-04-06T08:43:47;6.72;;;6.10;;
8632;SDS011;4354;49.832;10.746;2023-04-06T08:46:27;7.45;;;6.45;;
8632;SDS011;4354;49.832;10.746;2023-04-06T08:48:59;6.57;;;5.88;;
8632;SDS011;4354;49.832;10.746;2023-04-06T08:51:28;6.57;;;5.97;;
8632;SDS011;4354;49.832;10.746;2023-04-06T08:53:56;8.82;;;7.10;;
8632;SDS011;4354;49.832;10.746;2023-04-06T08:56:25;7.60;;;6.90;;
8632;SDS011;4354;49.832;10.746;2023-04-06T08:58:53;7.35;;;6.65;;
8632;SDS011;4354;49.832;10.746;2023-04-06T09:01:22;7.72;;;7.03;;
8632;SDS011;4354;49.832;10.746;2023-04-06T09:03:55;8.27;;;7.30;;
8632;SDS011;4354;49.832;10.746;2023-04-06T09:06:24;9.88;;;7.15;;
8632;SDS011;4354;49.832;10.746;2023-04-06T09:08:53;7.45;;;6.75;;
8632;SDS011;4354;49.832;10.746;2023-04-06T09:11:21;7.53;;;6.93;;
8632;SDS011;4354;49.832;10.746;2023-04-06T09:13:51;7.95;;;7.00;;
8632;SDS011;4354;49.832;10.746;2023-04-06T09:16:20;9.25;;;7.90;;
8632;SDS011;4354;49.832;10.746;2023-04-06T09:18:47;8.60;;;7.80;;
8632;SDS011;4354;49.832;10.746;2023-04-06T09:21:18;9.48;;;8.07;;
8632;SDS011;4354;49.832;10.746;2023-04-06T09:23:57;8.93;;;8.05;;
8632;SDS011;4354;49.832;10.746;2023-04-06T09:26:26;9.10;;;8.20;;
8632;SDS011;4354;49.832;10.746;2023-04-06T09:28:54;10.60;;;8.82;;
8632;SDS011;4354;49.832;10.746;2023-04-06T09:33:49;9.73;;;8.82;;
8632;SDS011;4354;49.832;10.746;2023-04-06T09:36:18;10.13;;;9.05;;
8632;SDS011;4354;49.832;10.746;2023-04-06T09:38:52;10.48;;;9.35;;
8632;SDS011;4354;49.832;10.746;2023-04-06T09:41:24;10.57;;;9.57;;
8632;SDS011;4354;49.832;10.746;2023-04-06T09:44:01;10.05;;;9.05;;
8632;SDS011;4354;49.832;10.746;2023-04-06T09:46:33;10.65;;;9.50;;
8632;SDS011;4354;49.832;10.746;2023-04-06T09:49:23;10.57;;;9.48;;
8632;SDS011;4354;49.832;10.746;2023-04-06T09:51:56;11.18;;;9.88;;
8632;SDS011;4354;49.832;10.746;2023-04-06T09:54:32;9.77;;;8.88;;
8632;SDS011;4354;49.832;10.746;2023-04-06T10:02:33;9.80;;;8.88;;
8632;SDS011;4354;49.832;10.746;2023-04-06T10:07:54;10.25;;;9.25;;
8632;SDS011;4354;49.832;10.746;2023-04-06T10:10:27;9.25;;;8.35;;
8632;SDS011;4354;49.832;10.746;2023-04-06T10:12:54;9.70;;;8.90;;
8632;SDS011;4354;49.832;10.746;2023-04-06T10:15:22;9.57;;;8.77;;
8632;SDS011;4354;49.832;10.746;2023-04-06T10:17:50;10.57;;;9.55;;
8632;SDS011;4354;49.832;10.746;2023-04-06T10:20:21;10.45;;;9.48;;
8632;SDS011;4354;49.832;10.746;2023-04-06T10:23:11;11.70;;;10.50;;
8632;SDS011;4354;49.832;10.746;2023-04-06T10:25:54;10.20;;;8.98;;
8632;SDS011;4354;49.832;10.746;2023-04-06T10:28:23;11.00;;;9.93;;
8632;SDS011;4354;49.832;10.746;2023-04-06T10:30:57;9.73;;;8.82;;
8632;SDS011;4354;49.832;10.746;2023-04-06T10:33:25;10.27;;;9.35;;
8632;SDS011;4354;49.832;10.746;2023-04-06T10:35:53;10.63;;;9.55;;
8632;SDS011;4354;49.832;10.746;2023-04-06T10:38:32;9.77;;;8.88;;
8632;SDS011;4354;49.832;10.746;2023-04-06T10:41:03;11.25;;;9.30;;
8632;SDS011;4354;49.832;10.746;2023-04-06T10:43:38;9.85;;;8.90;;
8632;SDS011;4354;49.832;10.746;2023-04-06T10:46:06;11.32;;;10.13;;
8632;SDS011;4354;49.832;10.746;2023-04-06T10:48:39;10.43;;;9.45;;
8632;SDS011;4354;49.832;10.746;2023-04-06T10:51:11;10.75;;;9.75;;
8632;SDS011;4354;49.832;10.746;2023-04-06T10:53:42;10.00;;;9.10;;
8632;SDS011;4354;49.832;10.746;2023-04-06T10:56:16;10.00;;;9.20;;
8632;SDS011;4354;49.832;10.746;2023-04-06T10:58:51;10.07;;;9.18;;
8632;SDS011;4354;49.832;10.746;2023-04-06T11:01:19;10.35;;;9.45;;
8632;SDS011;4354;49.832;10.746;2023-04-06T11:03:48;11.77;;;9.32;;
8632;SDS011;4354;49.832;10.746;2023-04-06T11:06:18;9.68;;;8.63;;
8632;SDS011;4354;49.832;10.746;2023-04-06T11:08:46;10.20;;;9.20;;
8632;SDS011;4354;49.832;10.746;2023-04-06T11:11:13;13.57;;;9.18;;
8632;SDS011;4354;49.832;10.746;2023-04-06T11:13:45;10.48;;;9.48;;
8632;SDS011;4354;49.832;10.746;2023-04-06T11:16:23;10.43;;;9.43;;
8632;SDS011;4354;49.832;10.746;2023-04-06T11:19:01;10.73;;;9.63;;
8632;SDS011;4354;49.832;10.746;2023-04-06T11:21:39;9.85;;;9.00;;
8632;SDS011;4354;49.832;10.746;2023-04-06T11:24:10;9.43;;;8.52;;
8632;SDS011;4354;49.832;10.746;2023-04-06T11:26:50;9.77;;;8.88;;
8632;SDS011;4354;49.832;10.746;2023-04-06T11:29:18;9.43;;;8.63;;
8632;SDS011;4354;49.832;10.746;2023-04-06T11:31:50;9.50;;;8.63;;
8632;SDS011;4354;49.832;10.746;2023-04-06T11:34:21;9.80;;;9.00;;
8632;SDS011;4354;49.832;10.746;2023-04-06T11:36:54;10.30;;;9.18;;
8632;SDS011;4354;49.832;10.746;2023-04-06T11:39:25;8.48;;;7.68;;
8632;SDS011;4354;49.832;10.746;2023-04-06T11:41:54;10.70;;;8.57;;
8632;SDS011;4354;49.832;10.746;2023-04-06T11:47:09;9.43;;;8.52;;
8632;SDS011;4354;49.832;10.746;2023-04-06T11:49:37;9.75;;;8.85;;
8632;SDS011;4354;49.832;10.746;2023-04-06T11:52:14;9.68;;;8.68;;
8632;SDS011;4354;49.832;10.746;2023-04-06T11:54:44;10.40;;;9.32;;
8632;SDS011;4354;49.832;10.746;2023-04-06T11:57:12;10.50;;;9.27;;
8632;SDS011;4354;49.832;10.746;2023-04-06T11:59:39;9.35;;;8.55;;
8632;SDS011;4354;49.832;10.746;2023-04-06T12:02:06;9.75;;;8.77;;
8632;SDS011;4354;49.832;10.746;2023-04-06T12:04:33;9.20;;;8.07;;
8632;SDS011;4354;49.832;10.746;2023-04-06T12:07:00;9.77;;;8.77;;
8632;SDS011;4354;49.832;10.746;2023-04-06T12:09:27;9.38;;;8.30;;
8632;SDS011;4354;49.832;10.746;2023-04-06T12:11:54;9.02;;;8.23;;
8632;SDS011;4354;49.832;10.746;2023-04-06T12:14:22;9.98;;;8.57;;
8632;SDS011;4354;49.832;10.746;2023-04-06T12:16:49;11.13;;;8.80;;
8632;SDS011;4354;49.832;10.746;2023-04-06T12:19:16;9.85;;;8.35;;
8632;SDS011;4354;49.832;10.746;2023-04-06T12:21:44;9.68;;;8.57;;
8632;SDS011;4354;49.832;10.746;2023-04-06T12:24:11;9.48;;;8.52;;
8632;SDS011;4354;49.832;10.746;2023-04-06T12:26:38;9.73;;;8.82;;
8632;SDS011;4354;49.832;10.746;2023-04-06T12:29:04;10.00;;;8.30;;
8632;SDS011;4354;49.832;10.746;2023-04-06T12:31:34;10.13;;;8.15;;
8632;SDS011;4354;49.832;10.746;2023-04-06T12:34:02;10.00;;;9.10;;
8632;SDS011;4354;49.832;10.746;2023-04-06T12:36:29;10.13;;;9.13;;
8632;SDS011;4354;49.832;10.746;2023-04-06T12:38:57;11.60;;;8.88;;
8632;SDS011;4354;49.832;10.746;2023-04-06T12:41:25;9.57;;;8.68;;
8632;SDS011;4354;49.832;10.746;2023-04-06T12:43:52;11.90;;;8.32;;
8632;SDS011;4354;49.832;10.746;2023-04-06T12:46:19;8.85;;;8.02;;
8632;SDS011;4354;49.832;10.746;2023-04-06T12:48:47;8.27;;;7.38;;
8632;SDS011;4354;49.832;10.746;2023-04-06T12:51:14;9.45;;;8.45;;
8632;SDS011;4354;49.832;10.746;2023-04-06T12:53:41;9.38;;;7.70;;
8632;SDS011;4354;49.832;10.746;2023-04-06T12:56:14;9.13;;;8.20;;
8632;SDS011;4354;49.832;10.746;2023-04-06T12:58:47;11.63;;;9.23;;
8632;SDS011;4354;49.832;10.746;2023-04-06T13:01:14;8.68;;;7.82;;
8632;SDS011;4354;49.832;10.746;2023-04-06T13:03:41;9.30;;;8.27;;
8632;SDS011;4354;49.832;10.746;2023-04-06T13:06:08;10.13;;;8.00;;
8632;SDS011;4354;49.832;10.746;2023-04-06T13:08:37;9.93;;;8.35;;
8632;SDS011;4354;49.832;10.746;2023-04-06T13:11:05;8.90;;;8.00;;
8632;SDS011;4354;49.832;10.746;2023-04-06T13:13:35;7.70;;;6.90;;
8632;SDS011;4354;49.832;10.746;2023-04-06T13:16:03;9.05;;;7.82;;
8632;SDS011;4354;49.832;10.746;2023-04-06T13:18:33;9.25;;;8.30;;
8632;SDS011;4354;49.832;10.746;2023-04-06T13:21:01;9.13;;;8.05;;
8632;SDS011;4354;49.832;10.746;2023-04-06T13:23:28;8.85;;;7.95;;
8632;SDS011;4354;49.832;10.746;2023-04-06T13:26:01;9.05;;;8.18;;
8632;SDS011;4354;49.832;10.746;2023-04-06T13:28:30;8.18;;;7.22;;
8632;SDS011;4354;49.832;10.746;2023-04-06T13:30:58;8.90;;;8.00;;
8632;SDS011;4354;49.832;10.746;2023-04-06T13:33:26;11.57;;;8.38;;
8632;SDS011;4354;49.832;10.746;2023-04-06T13:35:53;8.82;;;7.93;;
8632;SDS011;4354;49.832;10.746;2023-04-06T13:38:21;8.30;;;6.78;;
8632;SDS011;4354;49.832;10.746;2023-04-06T13:40:50;7.70;;;7.00;;
8632;SDS011;4354;49.832;10.746;2023-04-06T13:43:17;8.95;;;7.93;;
8632;SDS011;4354;49.832;10.746;2023-04-06T13:45:51;7.03;;;6.43;;
8632;SDS011;4354;49.832;10.746;2023-04-06T13:48:21;8.18;;;7.38;;
8632;SDS011;4354;49.832;10.746;2023-04-06T13:50:48;8.73;;;7.85;;
8632;SDS011;4354;49.832;10.746;2023-04-06T13:53:14;8.35;;;7.55;;
8632;SDS011;4354;49.832;10.746;2023-04-06T13:55:41;8.10;;;7.30;;
8632;SDS011;4354;49.832;10.746;2023-04-06T13:58:08;9.60;;;7.13;;
8632;SDS011;4354;49.832;10.746;2023-04-06T14:00:35;7.53;;;6.82;;
8632;SDS011;4354;49.832;10.746;2023-04-06T14:03:03;7.88;;;7.20;;
8632;SDS011;4354;49.832;10.746;2023-04-06T14:05:31;9.55;;;8.63;;
8632;SDS011;4354;49.832;10.746;2023-04-06T14:07:58;8.55;;;7.53;;
8632;SDS011;4354;49.832;10.746;2023-04-06T14:10:25;9.27;;;6.10;;
8632;SDS011;4354;49.832;10.746;2023-04-06T14:12:53;8.10;;;7.05;;
8632;SDS011;4354;49.832;10.746;2023-04-06T14:15:20;7.78;;;7.00;;
8632;SDS011;4354;49.832;10.746;2023-04-06T14:17:48;8.10;;;7.30;;
8632;SDS011;4354;49.832;10.746;2023-04-06T14:20:16;8.15;;;7.10;;
8632;SDS011;4354;49.832;10.746;2023-04-06T14:22:42;10.52;;;7.43;;
8632;SDS011;4354;49.832;10.746;2023-04-06T14:25:09;8.23;;;7.43;;
8632;SDS011;4354;49.832;10.746;2023-04-06T14:27:37;9.73;;;8.18;;
8632;SDS011;4354;49.832;10.746;2023-04-06T14:30:04;8.93;;;7.68;;
8632;SDS011;4354;49.832;10.746;2023-04-06T14:32:32;8.40;;;7.50;;
8632;SDS011;4354;49.832;10.746;2023-04-06T14:34:59;8.38;;;7.50;;
8632;SDS011;4354;49.832;10.746;2023-04-06T14:37:26;7.82;;;7.10;;
8632;SDS011;4354;49.832;10.746;2023-04-06T14:39:53;9.68;;;7.75;;
8632;SDS011;4354;49.832;10.746;2023-04-06T14:42:19;9.85;;;7.30;;
8632;SDS011;4354;49.832;10.746;2023-04-06T14:44:46;8.38;;;7.55;;
8632;SDS011;4354;49.832;10.746;2023-04-06T14:47:21;7.80;;;7.07;;
8632;SDS011;4354;49.832;10.746;2023-04-06T14:49:49;9.70;;;6.85;;
8632;SDS011;4354;49.832;10.746;2023-04-06T14:52:17;9.73;;;7.60;;
8632;SDS011;4354;49.832;10.746;2023-04-06T14:54:44;8.63;;;6.68;;
8632;SDS011;4354;49.832;10.746;2023-04-06T14:57:11;8.30;;;7.07;;
8632;SDS011;4354;49.832;10.746;2023-04-06T14:59:38;7.65;;;6.90;;
8632;SDS011;4354;49.832;10.746;2023-04-06T15:02:05;7.90;;;6.60;;
8632;SDS011;4354;49.832;10.746;2023-04-06T15:04:36;8.77;;;7.20;;
8632;SDS011;4354;49.832;10.746;2023-04-06T15:07:03;8.10;;;7.30;;
8632;SDS011;4354;49.832;10.746;2023-04-06T15:09:30;8.20;;;7.38;;
8632;SDS011;4354;49.832;10.746;2023-04-06T15:11:57;8.05;;;7.22;;
8632;SDS011;4354;49.832;10.746;2023-04-06T15:14:24;9.50;;;7.55;;
8632;SDS011;4354;49.832;10.746;2023-04-06T15:16:51;7.70;;;6.50;;
8632;SDS011;4354;49.832;10.746;2023-04-06T15:19:17;9.10;;;7.20;;
8632;SDS011;4354;49.832;10.746;2023-04-06T15:21:44;8.50;;;6.75;;
8632;SDS011;4354;49.832;10.746;2023-04-06T15:24:11;7.25;;;6.40;;
8632;SDS011;4354;49.832;10.746;2023-04-06T15:26:38;8.50;;;7.57;;
8632;SDS011;4354;49.832;10.746;2023-04-06T15:29:05;7.20;;;6.50;;
8632;SDS011;4354;49.832;10.746;2023-04-06T15:31:32;10.25;;;6.80;;
8632;SDS011;4354;49.832;10.746;2023-04-06T15:34:04;9.30;;;6.68;;
8632;SDS011;4354;49.832;10.746;2023-04-06T15:36:34;7.00;;;6.30;;
8632;SDS011;4354;49.832;10.746;2023-04-06T15:39:01;6.68;;;6.07;;
8632;SDS011;4354;49.832;10.746;2023-04-06T15:41:29;7.30;;;6.60;;
8632;SDS011;4354;49.832;10.746;2023-04-06T15:43:56;8.00;;;6.55;;
8632;SDS011;4354;49.832;10.746;2023-04-06T15:46:22;10.35;;;7.68;;
8632;SDS011;4354;49.832;10.746;2023-04-06T15:48:49;6.60;;;5.70;;
8632;SDS011;4354;49.832;10.746;2023-04-06T15:51:16;6.70;;;5.68;;
8632;SDS011;4354;49.832;10.746;2023-04-06T15:53:43;5.53;;;4.80;;
8632;SDS011;4354;49.832;10.746;2023-04-06T15:56:10;8.23;;;6.83;;
8632;SDS011;4354;49.832;10.746;2023-04-06T15:58:39;7.53;;;6.60;;
8632;SDS011;4354;49.832;10.746;2023-04-06T16:01:13;7.93;;;6.53;;
8632;SDS011;4354;49.832;10.746;2023-04-06T16:03:41;8.70;;;6.27;;
8632;SDS011;4354;49.832;10.746;2023-04-06T16:06:08;7.63;;;6.00;;
8632;SDS011;4354;49.832;10.746;2023-04-06T16:08:35;7.47;;;6.73;;
8632;SDS011;4354;49.832;10.746;2023-04-06T16:11:03;9.63;;;7.10;;
8632;SDS011;4354;49.832;10.746;2023-04-06T16:13:31;7.97;;;6.37;;
8632;SDS011;4354;49.832;10.746;2023-04-06T16:15:58;8.23;;;7.03;;
8632;SDS011;4354;49.832;10.746;2023-04-06T16:18:26;7.10;;;6.03;;
8632;SDS011;4354;49.832;10.746;2023-04-06T16:20:53;8.20;;;6.70;;
8632;SDS011;4354;49.832;10.746;2023-04-06T16:23:20;7.67;;;6.50;;
8632;SDS011;4354;49.832;10.746;2023-04-06T16:25:47;9.20;;;6.93;;
8632;SDS011;4354;49.832;10.746;2023-04-06T16:28:15;7.00;;;5.93;;
8632;SDS011;4354;49.832;10.746;2023-04-06T16:30:42;7.63;;;6.23;;
8632;SDS011;4354;49.832;10.746;2023-04-06T16:33:11;7.87;;;6.80;;
8632;SDS011;4354;49.832;10.746;2023-04-06T16:35:45;7.80;;;6.07;;
8632;SDS011;4354;49.832;10.746;2023-04-06T16:38:13;8.93;;;6.83;;
8632;SDS011;4354;49.832;10.746;2023-04-06T16:40:41;11.70;;;6.43;;
8632;SDS011;4354;49.832;10.746;2023-04-06T16:43:08;5.67;;;5.07;;
8632;SDS011;4354;49.832;10.746;2023-04-06T16:45:35;9.23;;;6.93;;
8632;SDS011;4354;49.832;10.746;2023-04-06T16:48:03;9.67;;;6.87;;
8632;SDS011;4354;49.832;10.746;2023-04-06T16:50:31;6.17;;;5.57;;
8632;SDS011;4354;49.832;10.746;2023-04-06T16:52:57;7.70;;;6.00;;
8632;SDS011;4354;49.832;10.746;2023-04-06T16:55:24;7.00;;;5.70;;